Grand Falls, Canada
Current Conditions -  °F | °C
As of 10:20 AM on Thursday 23 Oct 2014 (Local Time) from KCAR Reporting Station
Overcast Overcast  
Wind Chill: 39°   Ceiling: 7000
Heat Index: 45°   Visibility: 10mi
Dew Point: 37°   Wind: 13mph
Humidity: 74%   Direction: 40°NE
Pressure: 30.16"   Gusts: NA
Location:  47.05°N, 67.74°W
Report Text: KCAR 231320Z AUTO 04011KT 10SM SCT020 OVC070 07/03 A3016 RMK AO2 T00720028 $
Loading
Personal Weather Stations






























Interactive Weather Map
Tropical Storm Tracking
New forecast layout! Learn more

10-Day Weather Forecast

Advertisements
Track Severe Weather on mobile